sensor_id;sensor_type;location;lat;lon;timestamp;pressure;altitude;pressure_sealevel;temperature;humidity
54994;BME280;40891;47.242;8.648;2023-02-21T00:02:09;96913.97;;;7.54;79.22
54994;BME280;40891;47.242;8.648;2023-02-21T00:04:53;96905.78;;;7.70;78.42
54994;BME280;40891;47.242;8.648;2023-02-21T00:07:37;96912.91;;;7.71;78.05
54994;BME280;40891;47.242;8.648;2023-02-21T00:10:21;96901.81;;;7.71;78.63
54994;BME280;40891;47.242;8.648;2023-02-21T00:13:05;96902.53;;;7.75;77.21
54994;BME280;40891;47.242;8.648;2023-02-21T00:15:49;96895.16;;;7.69;77.19
54994;BME280;40891;47.242;8.648;2023-02-21T00:18:34;96901.19;;;7.60;77.70
54994;BME280;40891;47.242;8.648;2023-02-21T00:21:18;96894.13;;;7.59;76.39
54994;BME280;40891;47.242;8.648;2023-02-21T00:24:03;96897.53;;;7.43;77.01
54994;BME280;40891;47.242;8.648;2023-02-21T00:26:47;96894.19;;;7.29;78.12
54994;BME280;40891;47.242;8.648;2023-02-21T00:29:31;96898.03;;;7.12;78.68
54994;BME280;40891;47.242;8.648;2023-02-21T00:32:15;96896.13;;;7.05;78.93
54994;BME280;40891;47.242;8.648;2023-02-21T00:34:59;96892.59;;;7.05;78.92
54994;BME280;40891;47.242;8.648;2023-02-21T00:37:43;96890.81;;;6.91;80.14
54994;BME280;40891;47.242;8.648;2023-02-21T00:40:27;96888.94;;;6.84;80.76
54994;BME280;40891;47.242;8.648;2023-02-21T00:43:11;96879.53;;;6.78;82.41
54994;BME280;40891;47.242;8.648;2023-02-21T00:45:54;96889.47;;;6.72;82.90
54994;BME280;40891;47.242;8.648;2023-02-21T00:48:38;96878.53;;;6.65;83.56
54994;BME280;40891;47.242;8.648;2023-02-21T00:51:22;96880.19;;;6.59;84.02
54994;BME280;40891;47.242;8.648;2023-02-21T00:54:06;96868.41;;;6.55;83.37
54994;BME280;40891;47.242;8.648;2023-02-21T00:56:50;96870.41;;;6.51;82.63
54994;BME280;40891;47.242;8.648;2023-02-21T00:59:34;96868.91;;;6.47;82.37
54994;BME280;40891;47.242;8.648;2023-02-21T01:02:18;96865.78;;;6.45;81.91
54994;BME280;40891;47.242;8.648;2023-02-21T01:05:02;96864.91;;;6.51;81.35
54994;BME280;40891;47.242;8.648;2023-02-21T01:07:46;96868.03;;;6.53;80.23
54994;BME280;40891;47.242;8.648;2023-02-21T01:10:30;96859.38;;;6.51;80.81
54994;BME280;40891;47.242;8.648;2023-02-21T01:13:14;96868.09;;;6.50;79.79
54994;BME280;40891;47.242;8.648;2023-02-21T01:15:58;96867.72;;;6.48;79.37
54994;BME280;40891;47.242;8.648;2023-02-21T01:18:42;96869.34;;;6.42;79.39
54994;BME280;40891;47.242;8.648;2023-02-21T01:21:26;96876.09;;;6.41;78.33
54994;BME280;40891;47.242;8.648;2023-02-21T01:24:13;96874.59;;;6.33;78.99
54994;BME280;40891;47.242;8.648;2023-02-21T01:26:57;96873.00;;;6.35;77.38
54994;BME280;40891;47.242;8.648;2023-02-21T01:29:41;96868.66;;;6.34;77.91
54994;BME280;40891;47.242;8.648;2023-02-21T01:32:25;96854.47;;;6.32;78.87
54994;BME280;40891;47.242;8.648;2023-02-21T01:35:09;96854.84;;;6.34;79.26
54994;BME280;40891;47.242;8.648;2023-02-21T01:37:53;96852.47;;;6.36;78.41
54994;BME280;40891;47.242;8.648;2023-02-21T01:40:38;96854.84;;;6.34;78.70
54994;BME280;40891;47.242;8.648;2023-02-21T01:43:24;96846.47;;;6.41;77.98
54994;BME280;40891;47.242;8.648;2023-02-21T01:46:10;96853.16;;;6.44;78.20
54994;BME280;40891;47.242;8.648;2023-02-21T01:48:56;96841.75;;;6.42;77.46
54994;BME280;40891;47.242;8.648;2023-02-21T01:51:41;96843.72;;;6.41;77.22
54994;BME280;40891;47.242;8.648;2023-02-21T01:54:29;96837.53;;;6.34;77.11
54994;BME280;40891;47.242;8.648;2023-02-21T01:57:15;96836.75;;;6.30;76.71
54994;BME280;40891;47.242;8.648;2023-02-21T02:00:03;96837.63;;;6.27;76.75
54994;BME280;40891;47.242;8.648;2023-02-21T02:02:52;96835.31;;;6.22;78.38
54994;BME280;40891;47.242;8.648;2023-02-21T02:05:39;96830.19;;;6.20;77.70
54994;BME280;40891;47.242;8.648;2023-02-21T02:08:28;96843.25;;;6.16;78.66
54994;BME280;40891;47.242;8.648;2023-02-21T02:14:47;96843.63;;;6.18;78.15
54994;BME280;40891;47.242;8.648;2023-02-21T02:25:55;96836.13;;;6.18;76.55
54994;BME280;40891;47.242;8.648;2023-02-21T02:34:35;96833.59;;;6.01;77.40
54994;BME280;40891;47.242;8.648;2023-02-21T02:36:43;96826.84;;;6.02;77.40
54994;BME280;40891;47.242;8.648;2023-02-21T02:39:21;96824.06;;;6.05;77.66
54994;BME280;40891;47.242;8.648;2023-02-21T02:42:02;96827.59;;;6.06;78.47
54994;BME280;40891;47.242;8.648;2023-02-21T02:44:38;96833.09;;;6.06;78.27
54994;BME280;40891;47.242;8.648;2023-02-21T02:47:07;96827.66;;;6.02;78.85
54994;BME280;40891;47.242;8.648;2023-02-21T02:49:37;96835.88;;;6.06;79.04
54994;BME280;40891;47.242;8.648;2023-02-21T02:52:07;96822.06;;;6.06;78.60
54994;BME280;40891;47.242;8.648;2023-02-21T02:54:32;96829.19;;;6.03;78.11
54994;BME280;40891;47.242;8.648;2023-02-21T02:57:00;96837.91;;;6.02;78.80
54994;BME280;40891;47.242;8.648;2023-02-21T02:59:29;96819.69;;;6.08;78.94
54994;BME280;40891;47.242;8.648;2023-02-21T03:02:25;96832.75;;;6.04;78.17
54994;BME280;40891;47.242;8.648;2023-02-21T03:07:46;96831.75;;;5.87;78.77
54994;BME280;40891;47.242;8.648;2023-02-21T03:13:15;96836.19;;;5.74;79.25
54994;BME280;40891;47.242;8.648;2023-02-21T03:15:51;96833.97;;;5.62;81.53
54994;BME280;40891;47.242;8.648;2023-02-21T03:20:55;96843.97;;;5.45;83.65
54994;BME280;40891;47.242;8.648;2023-02-21T03:23:25;96837.31;;;5.39;86.09
54994;BME280;40891;47.242;8.648;2023-02-21T03:25:52;96848.31;;;5.43;90.02
54994;BME280;40891;47.242;8.648;2023-02-21T03:28:19;96846.41;;;5.36;90.59
54994;BME280;40891;47.242;8.648;2023-02-21T03:30:47;96840.13;;;5.36;92.14
54994;BME280;40891;47.242;8.648;2023-02-21T03:33:15;96837.09;;;5.20;92.87
54994;BME280;40891;47.242;8.648;2023-02-21T03:35:41;96834.78;;;5.11;92.17
54994;BME280;40891;47.242;8.648;2023-02-21T03:38:09;96834.06;;;5.07;95.20
54994;BME280;40891;47.242;8.648;2023-02-21T03:40:34;96830.16;;;5.01;96.71
54994;BME280;40891;47.242;8.648;2023-02-21T03:43:01;96834.16;;;4.97;96.43
54994;BME280;40891;47.242;8.648;2023-02-21T03:45:27;96835.31;;;4.96;98.35
54994;BME280;40891;47.242;8.648;2023-02-21T03:47:52;96836.16;;;4.89;98.89
54994;BME280;40891;47.242;8.648;2023-02-21T03:50:17;96839.72;;;4.86;99.46
54994;BME280;40891;47.242;8.648;2023-02-21T03:52:43;96832.66;;;4.81;99.93
54994;BME280;40891;47.242;8.648;2023-02-21T03:55:09;96830.75;;;4.75;98.20
54994;BME280;40891;47.242;8.648;2023-02-21T03:57:34;96842.94;;;4.74;96.78
54994;BME280;40891;47.242;8.648;2023-02-21T04:00:00;96835.06;;;4.76;97.97
54994;BME280;40891;47.242;8.648;2023-02-21T04:02:26;96842.94;;;4.74;100.00
54994;BME280;40891;47.242;8.648;2023-02-21T04:04:51;96830.38;;;4.73;100.00
54994;BME280;40891;47.242;8.648;2023-02-21T04:07:18;96838.22;;;4.71;100.00
54994;BME280;40891;47.242;8.648;2023-02-21T04:09:44;96839.81;;;4.72;99.96
54994;BME280;40891;47.242;8.648;2023-02-21T04:12:09;96828.78;;;4.72;99.15
54994;BME280;40891;47.242;8.648;2023-02-21T04:14:35;96841.38;;;4.73;99.17
54994;BME280;40891;47.242;8.648;2023-02-21T04:17:00;96838.22;;;4.71;99.03
54994;BME280;40891;47.242;8.648;2023-02-21T04:19:25;96825.25;;;4.75;100.00
54994;BME280;40891;47.242;8.648;2023-02-21T04:21:51;96833.47;;;4.78;100.00
54994;BME280;40891;47.242;8.648;2023-02-21T04:24:16;96833.47;;;4.78;100.00
54994;BME280;40891;47.242;8.648;2023-02-21T04:26:41;96831.88;;;4.81;100.00
54994;BME280;40891;47.242;8.648;2023-02-21T04:29:07;96836.22;;;4.82;100.00
54994;BME280;40891;47.242;8.648;2023-02-21T04:31:32;96833.47;;;4.78;100.00
54994;BME280;40891;47.242;8.648;2023-02-21T04:33:58;96835.81;;;4.83;100.00
54994;BME280;40891;47.242;8.648;2023-02-21T04:36:24;96833.41;;;4.89;100.00
54994;BME280;40891;47.242;8.648;2023-02-21T04:38:49;96823.19;;;4.90;100.00
54994;BME280;40891;47.242;8.648;2023-02-21T04:41:16;96833.00;;;4.91;100.00
54994;BME280;40891;47.242;8.648;2023-02-21T04:43:42;96832.63;;;4.89;100.00
54994;BME280;40891;47.242;8.648;2023-02-21T04:46:08;96828.31;;;4.84;100.00
54994;BME280;40891;47.242;8.648;2023-02-21T04:48:34;96832.72;;;4.74;100.00
54994;BME280;40891;47.242;8.648;2023-02-21T04:50:59;96840.59;;;4.72;100.00
54994;BME280;40891;47.242;8.648;2023-02-21T04:53:24;96846.50;;;4.71;100.00
54994;BME280;40891;47.242;8.648;2023-02-21T04:55:50;96841.44;;;4.66;100.00
54994;BME280;40891;47.242;8.648;2023-02-21T04:58:15;96841.84;;;4.61;100.00
54994;BME280;40891;47.242;8.648;2023-02-21T05:00:40;96848.16;;;4.58;100.00
54994;BME280;40891;47.242;8.648;2023-02-21T05:03:06;96841.47;;;4.55;100.00
54994;BME280;40891;47.242;8.648;2023-02-21T05:05:31;96850.13;;;4.57;100.00
54994;BME280;40891;47.242;8.648;2023-02-21T05:07:56;96843.06;;;4.53;100.00
54994;BME280;40891;47.242;8.648;2023-02-21T05:10:22;96843.88;;;4.50;100.00
54994;BME280;40891;47.242;8.648;2023-02-21T05:12:47;96846.28;;;4.44;100.00
54994;BME280;40891;47.242;8.648;2023-02-21T05:15:13;96847.06;;;4.45;100.00
54994;BME280;40891;47.242;8.648;2023-02-21T05:17:39;96843.91;;;4.46;100.00
54994;BME280;40891;47.242;8.648;2023-02-21T05:20:05;96845.06;;;4.45;100.00
54994;BME280;40891;47.242;8.648;2023-02-21T05:22:38;96846.25;;;4.51;100.00
54994;BME280;40891;47.242;8.648;2023-02-21T05:25:18;96837.56;;;4.56;100.00
54994;BME280;40891;47.242;8.648;2023-02-21T05:27:45;96835.19;;;4.55;100.00
54994;BME280;40891;47.242;8.648;2023-02-21T05:30:12;96845.41;;;4.54;100.00
54994;BME280;40891;47.242;8.648;2023-02-21T05:32:38;96831.22;;;4.59;100.00
54994;BME280;40891;47.242;8.648;2023-02-21T05:35:04;96834.78;;;4.60;100.00
54994;BME280;40891;47.242;8.648;2023-02-21T05:37:30;96839.91;;;4.58;100.00
54994;BME280;40891;47.242;8.648;2023-02-21T05:39:56;96840.66;;;4.62;100.00
54994;BME280;40891;47.242;8.648;2023-02-21T05:42:21;96849.69;;;4.66;100.00
54994;BME280;40891;47.242;8.648;2023-02-21T05:44:46;96848.13;;;4.65;100.00
54994;BME280;40891;47.242;8.648;2023-02-21T05:47:12;96850.13;;;4.61;100.00
54994;BME280;40891;47.242;8.648;2023-02-21T05:49:38;96843.03;;;4.60;100.00
54994;BME280;40891;47.242;8.648;2023-02-21T05:52:03;96853.28;;;4.56;100.00
54994;BME280;40891;47.242;8.648;2023-02-21T05:54:29;96852.50;;;4.59;100.00
54994;BME280;40891;47.242;8.648;2023-02-21T05:56:55;96858.00;;;4.59;100.00
54994;BME280;40891;47.242;8.648;2023-02-21T05:59:20;96861.56;;;4.56;100.00
54994;BME280;40891;47.242;8.648;2023-02-21T06:01:46;96860.38;;;4.50;100.00
54994;BME280;40891;47.242;8.648;2023-02-21T06:04:12;96860.41;;;4.46;100.00
54994;BME280;40891;47.242;8.648;2023-02-21T06:06:37;96866.34;;;4.41;100.00
54994;BME280;40891;47.242;8.648;2023-02-21T06:09:03;96862.81;;;4.37;100.00
54994;BME280;40891;47.242;8.648;2023-02-21T06:11:32;96864.03;;;4.33;100.00
54994;BME280;40891;47.242;8.648;2023-02-21T06:14:00;96852.59;;;4.34;100.00
54994;BME280;40891;47.242;8.648;2023-02-21T06:16:31;96859.69;;;4.35;100.00
54994;BME280;40891;47.242;8.648;2023-02-21T06:18:57;96854.94;;;4.36;99.57
54994;BME280;40891;47.242;8.648;2023-02-21T06:21:23;96860.41;;;4.43;100.00
54994;BME280;40891;47.242;8.648;2023-02-21T06:23:48;96864.75;;;4.44;100.00
54994;BME280;40891;47.242;8.648;2023-02-21T06:26:15;96862.38;;;4.49;99.53
54994;BME280;40891;47.242;8.648;2023-02-21T06:28:40;96862.38;;;4.49;98.68
54994;BME280;40891;47.242;8.648;2023-02-21T06:31:06;96869.06;;;4.48;97.30
54994;BME280;40891;47.242;8.648;2023-02-21T06:33:32;96870.22;;;4.51;97.16
54994;BME280;40891;47.242;8.648;2023-02-21T06:35:57;96870.97;;;4.55;98.40
54994;BME280;40891;47.242;8.648;2023-02-21T06:38:23;96872.94;;;4.58;98.10
54994;BME280;40891;47.242;8.648;2023-02-21T06:40:48;96876.88;;;4.60;97.74
54994;BME280;40891;47.242;8.648;2023-02-21T06:43:14;96870.53;;;4.67;97.38
54994;BME280;40891;47.242;8.648;2023-02-21T06:45:39;96878.38;;;4.72;96.93
54994;BME280;40891;47.242;8.648;2023-02-21T06:48:05;96870.81;;;4.87;97.35
54994;BME280;40891;47.242;8.648;2023-02-21T06:50:31;96872.63;;;5.07;95.93
54994;BME280;40891;47.242;8.648;2023-02-21T06:52:58;96871.78;;;5.17;94.96
54994;BME280;40891;47.242;8.648;2023-02-21T06:55:24;96867.78;;;5.22;94.50
54994;BME280;40891;47.242;8.648;2023-02-21T06:57:49;96867.75;;;5.29;93.67
54994;BME280;40891;47.242;8.648;2023-02-21T07:00:15;96873.97;;;5.36;93.71
54994;BME280;40891;47.242;8.648;2023-02-21T07:02:41;96877.06;;;5.45;93.32
54994;BME280;40891;47.242;8.648;2023-02-21T07:05:07;96871.97;;;5.44;93.94
54994;BME280;40891;47.242;8.648;2023-02-21T07:07:32;96871.44;;;5.56;95.17
54994;BME280;40891;47.242;8.648;2023-02-21T07:09:58;96868.72;;;5.53;94.59
54994;BME280;40891;47.242;8.648;2023-02-21T07:12:24;96864.38;;;5.51;95.00
54994;BME280;40891;47.242;8.648;2023-02-21T07:14:49;96874.53;;;5.65;97.23
54994;BME280;40891;47.242;8.648;2023-02-21T07:17:14;96870.09;;;5.75;97.39
54994;BME280;40891;47.242;8.648;2023-02-21T07:19:40;96878.31;;;5.82;96.60
54994;BME280;40891;47.242;8.648;2023-02-21T07:22:06;96888.44;;;5.95;96.77
54994;BME280;40891;47.242;8.648;2023-02-21T07:24:32;96887.38;;;6.20;95.90
54994;BME280;40891;47.242;8.648;2023-02-21T07:26:58;96881.91;;;6.50;92.96
54994;BME280;40891;47.242;8.648;2023-02-21T07:29:24;96881.94;;;6.76;92.50
54994;BME280;40891;47.242;8.648;2023-02-21T07:31:49;96873.91;;;7.12;88.56
54994;BME280;40891;47.242;8.648;2023-02-21T07:34:14;96881.59;;;7.51;86.82
54994;BME280;40891;47.242;8.648;2023-02-21T07:36:41;96879.78;;;7.87;84.81
54994;BME280;40891;47.242;8.648;2023-02-21T07:39:06;96883.16;;;8.41;81.35
54994;BME280;40891;47.242;8.648;2023-02-21T07:41:32;96878.66;;;8.67;79.50
54994;BME280;40891;47.242;8.648;2023-02-21T07:43:57;96874.91;;;8.93;77.66
54994;BME280;40891;47.242;8.648;2023-02-21T07:46:26;96877.06;;;9.37;75.38
54994;BME280;40891;47.242;8.648;2023-02-21T07:48:52;96862.31;;;9.89;72.68
54994;BME280;40891;47.242;8.648;2023-02-21T07:51:17;96860.50;;;10.27;71.54
54994;BME280;40891;47.242;8.648;2023-02-21T07:53:43;96862.66;;;10.36;71.07
54994;BME280;40891;47.242;8.648;2023-02-21T07:56:09;96856.66;;;10.78;69.59
54994;BME280;40891;47.242;8.648;2023-02-21T07:58:34;96850.09;;;11.48;67.36
54994;BME280;40891;47.242;8.648;2023-02-21T08:01:02;96849.88;;;12.14;64.94
54994;BME280;40891;47.242;8.648;2023-02-21T08:03:28;96852.47;;;12.30;63.43
54994;BME280;40891;47.242;8.648;2023-02-21T08:05:53;96846.00;;;12.34;63.21
54994;BME280;40891;47.242;8.648;2023-02-21T08:08:19;96847.13;;;12.02;63.49
54994;BME280;40891;47.242;8.648;2023-02-21T08:10:44;96849.31;;;11.60;65.83
54994;BME280;40891;47.242;8.648;2023-02-21T08:13:09;96852.44;;;11.49;67.58
54994;BME280;40891;47.242;8.648;2023-02-21T08:15:35;96852.44;;;11.24;68.23
54994;BME280;40891;47.242;8.648;2023-02-21T08:18:00;96850.19;;;11.82;66.35
54994;BME280;40891;47.242;8.648;2023-02-21T08:20:25;96850.41;;;11.62;65.05
54994;BME280;40891;47.242;8.648;2023-02-21T08:22:51;96850.91;;;11.11;67.92
54994;BME280;40891;47.242;8.648;2023-02-21T08:25:16;96861.09;;;10.35;70.53
54994;BME280;40891;47.242;8.648;2023-02-21T08:27:42;96860.97;;;10.09;72.12
54994;BME280;40891;47.242;8.648;2023-02-21T08:30:10;96848.97;;;10.82;69.80
54994;BME280;40891;47.242;8.648;2023-02-21T08:32:36;96842.88;;;11.97;64.47
54994;BME280;40891;47.242;8.648;2023-02-21T08:35:03;96828.69;;;13.52;58.55
54994;BME280;40891;47.242;8.648;2023-02-21T08:37:31;96826.22;;;15.09;53.84
54994;BME280;40891;47.242;8.648;2023-02-21T08:39:58;96818.44;;;16.40;48.01
54994;BME280;40891;47.242;8.648;2023-02-21T08:42:24;96817.16;;;17.38;46.12
54994;BME280;40891;47.242;8.648;2023-02-21T08:44:50;96815.50;;;17.46;44.64
54994;BME280;40891;47.242;8.648;2023-02-21T08:47:17;96802.31;;;18.27;42.93
54994;BME280;40891;47.242;8.648;2023-02-21T08:49:43;96795.28;;;18.83;41.75
54994;BME280;40891;47.242;8.648;2023-02-21T08:52:09;96796.75;;;19.66;40.14
54994;BME280;40891;47.242;8.648;2023-02-21T08:54:35;96780.63;;;20.20;38.55
54994;BME280;40891;47.242;8.648;2023-02-21T08:57:01;96785.47;;;20.95;37.28
54994;BME280;40891;47.242;8.648;2023-02-21T08:59:26;96783.69;;;20.98;37.24
54994;BME280;40891;47.242;8.648;2023-02-21T09:01:54;96783.72;;;21.48;36.23
54994;BME280;40891;47.242;8.648;2023-02-21T09:04:19;96778.00;;;21.81;35.99
54994;BME280;40891;47.242;8.648;2023-02-21T09:06:45;96777.47;;;22.05;34.49
54994;BME280;40891;47.242;8.648;2023-02-21T09:09:10;96779.09;;;22.47;33.91
54994;BME280;40891;47.242;8.648;2023-02-21T09:11:36;96774.97;;;22.48;33.51
54994;BME280;40891;47.242;8.648;2023-02-21T09:14:01;96768.13;;;23.14;32.61
54994;BME280;40891;47.242;8.648;2023-02-21T09:16:30;96763.41;;;23.22;32.27
54994;BME280;40891;47.242;8.648;2023-02-21T09:18:57;96760.41;;;23.44;30.65
54994;BME280;40891;47.242;8.648;2023-02-21T09:21:23;96760.47;;;23.68;30.15
54994;BME280;40891;47.242;8.648;2023-02-21T09:23:51;96755.66;;;24.06;29.56
54994;BME280;40891;47.242;8.648;2023-02-21T09:26:17;96756.84;;;23.92;28.65
54994;BME280;40891;47.242;8.648;2023-02-21T09:28:43;96754.09;;;24.05;28.53
54994;BME280;40891;47.242;8.648;2023-02-21T09:31:08;96750.56;;;23.50;28.76
54994;BME280;40891;47.242;8.648;2023-02-21T09:33:37;96754.44;;;24.01;29.43
54994;BME280;40891;47.242;8.648;2023-02-21T09:36:07;96744.44;;;25.12;27.40
54994;BME280;40891;47.242;8.648;2023-02-21T09:38:33;96742.53;;;24.83;28.14
54994;BME280;40891;47.242;8.648;2023-02-21T09:41:01;96731.00;;;25.57;27.64
54994;BME280;40891;47.242;8.648;2023-02-21T09:43:36;96732.72;;;25.47;27.38
54994;BME280;40891;47.242;8.648;2023-02-21T09:46:16;96727.28;;;25.89;26.27
54994;BME280;40891;47.242;8.648;2023-02-21T09:48:43;96724.38;;;26.07;27.35
54994;BME280;40891;47.242;8.648;2023-02-21T09:51:10;96717.00;;;26.25;26.45
54994;BME280;40891;47.242;8.648;2023-02-21T09:53:38;96710.13;;;26.80;25.11
54994;BME280;40891;47.242;8.648;2023-02-21T09:56:07;96712.78;;;26.78;24.92
54994;BME280;40891;47.242;8.648;2023-02-21T09:58:38;96709.50;;;26.48;23.65
54994;BME280;40891;47.242;8.648;2023-02-21T10:01:14;96695.47;;;27.18;23.11
54994;BME280;40891;47.242;8.648;2023-02-21T10:03:52;96701.28;;;26.91;23.81
54994;BME280;40891;47.242;8.648;2023-02-21T10:09:37;96695.94;;;27.50;23.48
54994;BME280;40891;47.242;8.648;2023-02-21T10:12:18;96692.69;;;27.46;23.14
54994;BME280;40891;47.242;8.648;2023-02-21T10:15:20;96687.25;;;27.84;23.42
54994;BME280;40891;47.242;8.648;2023-02-21T10:18:00;96690.06;;;28.04;22.60
54994;BME280;40891;47.242;8.648;2023-02-21T10:21:03;96684.78;;;28.08;23.75
54994;BME280;40891;47.242;8.648;2023-02-21T10:23:39;96679.78;;;28.37;22.78
54994;BME280;40891;47.242;8.648;2023-02-21T10:26:10;96687.41;;;28.93;22.15
54994;BME280;40891;47.242;8.648;2023-02-21T10:28:37;96675.63;;;29.34;22.11
54994;BME280;40891;47.242;8.648;2023-02-21T10:31:17;96681.91;;;29.18;22.34
54994;BME280;40891;47.242;8.648;2023-02-21T10:33:44;96676.22;;;29.86;20.34
54994;BME280;40891;47.242;8.648;2023-02-21T10:36:18;96672.34;;;30.06;20.39
54994;BME280;40891;47.242;8.648;2023-02-21T10:39:04;96668.84;;;30.38;20.31
54994;BME280;40891;47.242;8.648;2023-02-21T10:41:37;96664.22;;;30.50;20.24
54994;BME280;40891;47.242;8.648;2023-02-21T10:44:09;96674.47;;;30.60;20.18
54994;BME280;40891;47.242;8.648;2023-02-21T10:46:41;96660.16;;;29.98;19.50
54994;BME280;40891;47.242;8.648;2023-02-21T10:49:28;96658.03;;;30.61;19.62
54994;BME280;40891;47.242;8.648;2023-02-21T10:52:11;96653.81;;;31.02;17.92
54994;BME280;40891;47.242;8.648;2023-02-21T10:54:37;96651.16;;;30.96;17.88
54994;BME280;40891;47.242;8.648;2023-02-21T10:57:06;96636.78;;;31.70;17.27
54994;BME280;40891;47.242;8.648;2023-02-21T10:59:34;96640.31;;;31.36;17.09
54994;BME280;40891;47.242;8.648;2023-02-21T11:02:01;96632.88;;;31.58;17.52
54994;BME280;40891;47.242;8.648;2023-02-21T11:04:32;96637.69;;;31.55;17.62
54994;BME280;40891;47.242;8.648;2023-02-21T11:07:09;96626.94;;;31.56;16.25
54994;BME280;40891;47.242;8.648;2023-02-21T11:09:38;96619.78;;;31.82;16.26
54994;BME280;40891;47.242;8.648;2023-02-21T11:14:33;96619.94;;;31.49;16.41
54994;BME280;40891;47.242;8.648;2023-02-21T11:19:49;96607.06;;;31.26;16.64
54994;BME280;40891;47.242;8.648;2023-02-21T11:22:20;96592.97;;;32.13;16.03
54994;BME280;40891;47.242;8.648;2023-02-21T11:24:51;96587.56;;;32.88;16.07
54994;BME280;40891;47.242;8.648;2023-02-21T11:27:18;96580.03;;;33.29;15.23
54994;BME280;40891;47.242;8.648;2023-02-21T11:29:47;96584.22;;;32.82;16.41
54994;BME280;40891;47.242;8.648;2023-02-21T11:32:25;96582.28;;;32.23;15.90
54994;BME280;40891;47.242;8.648;2023-02-21T11:35:00;96570.66;;;32.75;14.93
54994;BME280;40891;47.242;8.648;2023-02-21T11:37:26;96567.19;;;32.50;14.94
54994;BME280;40891;47.242;8.648;2023-02-21T11:39:52;96560.72;;;33.12;14.58
54994;BME280;40891;47.242;8.648;2023-02-21T11:42:28;96555.09;;;33.14;14.39
54994;BME280;40891;47.242;8.648;2023-02-21T11:45:13;96552.06;;;33.12;14.88
54994;BME280;40891;47.242;8.648;2023-02-21T11:47:47;96547.56;;;33.38;15.22
54994;BME280;40891;47.242;8.648;2023-02-21T11:50:24;96541.91;;;33.86;14.33
54994;BME280;40891;47.242;8.648;2023-02-21T11:52:55;96533.31;;;34.64;14.03
54994;BME280;40891;47.242;8.648;2023-02-21T11:55:25;96534.44;;;34.31;14.19
54994;BME280;40891;47.242;8.648;2023-02-21T11:58:12;96528.03;;;34.32;14.70
54994;BME280;40891;47.242;8.648;2023-02-21T12:03:46;96507.53;;;32.96;15.59
54994;BME280;40891;47.242;8.648;2023-02-21T12:09:24;96495.88;;;33.59;15.62
54994;BME280;40891;47.242;8.648;2023-02-21T12:12:04;96492.50;;;33.72;15.60
54994;BME280;40891;47.242;8.648;2023-02-21T12:14:43;96478.56;;;34.66;14.34
54994;BME280;40891;47.242;8.648;2023-02-21T12:28:52;96450.66;;;35.75;14.34
54994;BME280;40891;47.242;8.648;2023-02-21T12:34:42;96452.25;;;35.24;13.91
54994;BME280;40891;47.242;8.648;2023-02-21T12:39:59;96452.13;;;33.63;15.57
54994;BME280;40891;47.242;8.648;2023-02-21T12:45:28;96428.94;;;36.18;13.90
54994;BME280;40891;47.242;8.648;2023-02-21T12:48:09;96421.72;;;36.87;13.63
54994;BME280;40891;47.242;8.648;2023-02-21T12:50:40;96419.28;;;37.06;13.54
54994;BME280;40891;47.242;8.648;2023-02-21T12:53:17;96422.66;;;35.14;14.54
54994;BME280;40891;47.242;8.648;2023-02-21T12:56:08;96421.78;;;34.40;15.55
54994;BME280;40891;47.242;8.648;2023-02-21T13:01:31;96403.84;;;35.24;15.17
54994;BME280;40891;47.242;8.648;2023-02-21T13:04:05;96397.06;;;35.85;14.29
54994;BME280;40891;47.242;8.648;2023-02-21T13:06:40;96398.13;;;35.15;14.47
54994;BME280;40891;47.242;8.648;2023-02-21T13:09:29;96392.91;;;34.31;15.51
54994;BME280;40891;47.242;8.648;2023-02-21T13:12:05;96387.97;;;34.52;15.12
54994;BME280;40891;47.242;8.648;2023-02-21T13:14:38;96380.69;;;36.11;13.88
54994;BME280;40891;47.242;8.648;2023-02-21T13:17:09;96380.53;;;34.09;15.33
54994;BME280;40891;47.242;8.648;2023-02-21T13:19:52;96369.88;;;35.25;14.93
54994;BME280;40891;47.242;8.648;2023-02-21T13:22:23;96367.09;;;35.81;14.09
54994;BME280;40891;47.242;8.648;2023-02-21T13:25:20;96362.16;;;35.39;14.70
54994;BME280;40891;47.242;8.648;2023-02-21T13:27:59;96359.41;;;35.74;14.39
54994;BME280;40891;47.242;8.648;2023-02-21T13:30:41;96345.56;;;35.39;15.15
54994;BME280;40891;47.242;8.648;2023-02-21T13:35:56;96341.31;;;36.52;13.37
54994;BME280;40891;47.242;8.648;2023-02-21T13:38:25;96334.50;;;36.48;14.24
54994;BME280;40891;47.242;8.648;2023-02-21T13:41:01;96328.59;;;35.13;14.54
54994;BME280;40891;47.242;8.648;2023-02-21T13:43:32;96327.16;;;36.24;14.13
54994;BME280;40891;47.242;8.648;2023-02-21T13:58:22;96303.69;;;37.37;12.61
54994;BME280;40891;47.242;8.648;2023-02-21T14:08:28;96290.72;;;34.87;14.58
54994;BME280;40891;47.242;8.648;2023-02-21T14:13:36;96283.91;;;35.37;14.56
54994;BME280;40891;47.242;8.648;2023-02-21T14:16:17;96278.69;;;34.70;14.77
54994;BME280;40891;47.242;8.648;2023-02-21T14:24:14;96279.22;;;34.05;15.16
54994;BME280;40891;47.242;8.648;2023-02-21T14:27:01;96277.50;;;32.47;16.84
54994;BME280;40891;47.242;8.648;2023-02-21T14:32:43;96261.63;;;33.82;15.25
54994;BME280;40891;47.242;8.648;2023-02-21T14:38:06;96266.66;;;32.83;16.34
54994;BME280;40891;47.242;8.648;2023-02-21T14:40:54;96263.41;;;33.96;15.43
54994;BME280;40891;47.242;8.648;2023-02-21T14:49:24;96244.56;;;34.78;15.18
54994;BME280;40891;47.242;8.648;2023-02-21T14:52:17;96235.38;;;34.81;14.57
54994;BME280;40891;47.242;8.648;2023-02-21T15:03:14;96223.97;;;34.41;15.77
54994;BME280;40891;47.242;8.648;2023-02-21T15:08:45;96226.75;;;32.99;17.11
54994;BME280;40891;47.242;8.648;2023-02-21T15:11:35;96221.91;;;32.54;16.43
54994;BME280;40891;47.242;8.648;2023-02-21T15:14:31;96222.78;;;30.92;17.90
54994;BME280;40891;47.242;8.648;2023-02-21T15:17:09;96231.41;;;29.17;19.90
54994;BME280;40891;47.242;8.648;2023-02-21T15:19:34;96234.63;;;27.89;21.65
54994;BME280;40891;47.242;8.648;2023-02-21T15:22:19;96238.31;;;26.14;23.60
54994;BME280;40891;47.242;8.648;2023-02-21T15:25:19;96240.22;;;24.74;26.10
54994;BME280;40891;47.242;8.648;2023-02-21T15:35:36;96239.50;;;21.34;32.07
54994;BME280;40891;47.242;8.648;2023-02-21T15:38:06;96244.88;;;20.26;33.91